Terminal Aerodrome Forecast
Issued by NWS

Home | Current Version | Previous Version | Text Only | Print | Product List | Glossary On
Versions: 1 2 3 4 5 6 7 8 9 10 11 12 13 14 15 16 17 18 19 20 21
000
FTUS41 KPBZ 232100 AAB
TAFFKL
TAF AMD
KFKL 232126Z 2321/2418 32010KT P6SM BKN015 OVC025
      TEMPO 2321/2323 6SM BR OVC005
     FM240600 34004KT P6SM SCT015
     FM241500 01006KT P6SM BKN035
      AMD LTD TO CLD VIS AND WIND=

USA.gov is the U.S. government's official web portal to all federal, state and local government web resources and services.